Terminal Aerodrome Forecast
Issued by NWS Corpus Christi, TX

Home | Current Version | Previous Version | Text Only | Print | Product List | Glossary On
Versions: 1 2 3 4 5 6 7 8 9 10 11 12 13 14 15 16 17 18
000
FTUS44 KCRP 022300
TAFCRP
TAF
KCRP 022323Z 0300/0324 02007KT 2SM -DZ OVC004
      TEMPO 0300/0304 1SM -DZ BR OVC003
     FM030400 04006KT 1/2SM -DZ FG OVC002
     FM031700 16008KT 3SM -DZ BR OVC008
     FM032000 16016G21KT P6SM BKN015=

USA.gov is the U.S. government's official web portal to all federal, state and local government web resources and services.